Paris/Orly Airport

Airport
ICAO code: 
LFPO
IATA Code: 
ORY
Summary
ICAO Region: 
EUR
Territory: 
Location: 
Orly, Ile-de-France
Serving: 
Paris
Elevation: 
291 ft
Coordinates: 
Aerial View: 
48° 43' 34.062" N, 2° 21' 50.799" E
Airport LOS: 
Parallel Runway Operation
Metar
Observation
LFPO 060530Z 28004KT 9999 -RA BKN009 BKN016 05/05 Q1014 NOSIG
Station
Paris-Orly
Date/Time
2021-12-06 05:30:00
Wind direction
280°
Wind speed
04 kts
Lowest cloud amount
broken clouds
Temperature
5°C
Dew point
5°C
Humidity
100%
QNH
1014 hPa
Weather condition
light rain

Description

Busy domestic and limited international airport approximately 7 nm to the south of Paris.

Climatology

Temperate Marine climate/Oceanic climate (Köppen climate classification Cfb). Moderately cool summer and comparatively warm winter. Prevailing south-westerly winds from the Atlantic Ocean.

Runways

Designator Length Width Surface Rops
2/20 2400 60 CON Yes/Yes
8/26 3320 45 CON Yes/Yes
6/24 3650 45 ASP Yes/Yes

SKYbrary Partners:

Safety knowledge contributed by: